Time;durP1;ratioP1;P1;durP2;ratioP2;P2;SDS_P1;SDS_P2;PMS_P1;PMS_P2;Temp;Humidity;BMP_temperature;BMP_pressure;BME280_temperature;BME280_humidity;BME280_pressure;Samples;Min_cycle;Max_cycle;Signal;HPM_P1;HPM_P2
2021/08/16 00:01:54;;;;;;;692.50;398.70;;;;;;;14.89;58.83;99924.69;5069124;28;20707;-68
2021/08/16 00:04:22;;;;;;;688.77;405.73;;;;;;;15.03;59.43;99956.66;5069024;28;20853;-69
2021/08/16 00:06:52;;;;;;;678.60;372.43;;;;;;;15.00;59.41;99962.38;5069004;28;20814;-68
2021/08/16 00:09:20;;;;;;;693.67;406.40;;;;;;;14.98;59.50;99956.22;5068690;28;20521;-68
2021/08/16 00:11:48;;;;;;;694.90;407.93;;;;;;;14.94;59.21;99957.53;5071255;28;20454;-69
2021/08/16 00:14:16;;;;;;;694.07;415.47;;;;;;;14.93;59.06;99955.00;5068728;28;20440;-69
2021/08/16 00:16:45;;;;;;;684.03;382.40;;;;;;;14.80;60.81;99952.66;5069204;28;20450;-68
2021/08/16 00:19:13;;;;;;;688.80;395.63;;;;;;;14.69;60.89;99950.97;5069003;28;20804;-68
2021/08/16 00:21:45;;;;;;;692.37;405.03;;;;;;;14.49;60.14;99933.19;5068516;28;20505;-69
2021/08/16 00:24:15;;;;;;;694.53;389.77;;;;;;;14.56;60.68;99956.75;5068902;28;20842;-69
2021/08/16 00:26:43;;;;;;;695.70;408.03;;;;;;;14.51;61.27;99952.78;5068281;28;20487;-69
2021/08/16 00:29:11;;;;;;;687.87;391.03;;;;;;;14.48;60.18;99948.53;5066362;28;20451;-69
2021/08/16 00:31:39;;;;;;;680.03;367.17;;;;;;;14.40;63.17;99951.09;5084566;28;20447;-69
2021/08/16 00:34:07;;;;;;;694.80;391.70;;;;;;;14.37;61.76;99951.38;5068801;28;20518;-68
2021/08/16 00:36:36;;;;;;;690.33;390.50;;;;;;;14.32;61.79;99959.06;5068507;28;20476;-69
2021/08/16 00:39:04;;;;;;;695.60;406.17;;;;;;;14.32;60.94;99956.38;5068800;28;20443;-67
2021/08/16 00:41:35;;;;;;;697.20;406.40;;;;;;;14.35;61.18;99950.66;5068774;28;20439;-68
2021/08/16 00:44:07;;;;;;;694.90;410.83;;;;;;;14.09;60.87;99903.75;5068885;28;20452;-69
2021/08/16 00:46:39;;;;;;;697.77;396.73;;;;;;;14.26;61.08;99935.34;5067847;28;20481;-69
2021/08/16 00:49:08;;;;;;;679.23;372.77;;;;;;;14.32;60.88;99952.81;5072638;28;20438;-68
2021/08/16 00:51:36;;;;;;;677.00;351.50;;;;;;;14.25;62.04;99944.47;5072395;28;20434;-68
2021/08/16 00:54:07;;;;;;;672.57;356.23;;;;;;;14.14;61.67;99950.03;5088359;28;20454;-68
2021/08/16 00:56:37;;;;;;;666.83;344.23;;;;;;;14.00;63.27;99940.53;5072405;28;20445;-69
2021/08/16 00:59:07;;;;;;;673.23;355.43;;;;;;;13.99;62.01;99942.41;5072694;28;20452;-67
2021/08/16 01:01:35;;;;;;;669.70;349.50;;;;;;;13.98;61.79;99945.25;5069557;28;20458;-68
2021/08/16 01:04:03;;;;;;;669.87;352.10;;;;;;;13.93;63.09;99948.38;5064663;28;20919;-69
2021/08/16 01:06:32;;;;;;;680.87;374.10;;;;;;;13.10;63.74;99829.47;5068653;28;20464;-68
2021/08/16 01:09:00;;;;;;;693.17;389.27;;;;;;;13.71;64.03;99937.91;5071881;28;20950;-69
2021/08/16 01:11:28;;;;;;;682.07;380.07;;;;;;;13.72;63.24;99936.03;5067060;28;20951;-69
2021/08/16 01:13:59;;;;;;;676.90;369.53;;;;;;;13.67;63.73;99926.53;5070484;28;20455;-69
2021/08/16 01:16:27;;;;;;;692.80;406.10;;;;;;;13.60;62.86;99913.78;5056599;28;20450;-69
2021/08/16 01:18:55;;;;;;;687.73;394.90;;;;;;;13.64;62.86;99920.59;5069058;28;20441;-68
2021/08/16 01:21:23;;;;;;;695.43;408.13;;;;;;;13.62;62.49;99923.44;5067290;28;20537;-68
2021/08/16 01:23:51;;;;;;;693.47;398.97;;;;;;;13.49;63.17;99906.69;5052397;28;20484;-67
2021/08/16 01:26:19;;;;;;;840.50;487.70;;;;;;;13.57;62.45;99922.16;5063302;28;20674;-69
2021/08/16 01:28:49;;;;;;;709.90;420.23;;;;;;;13.56;62.23;99923.16;5067025;28;20452;-69
2021/08/16 01:31:17;;;;;;;697.53;404.57;;;;;;;13.53;62.25;99918.91;5069743;28;20608;-68
2021/08/16 01:33:45;;;;;;;686.80;384.70;;;;;;;13.53;61.70;99915.34;5067413;28;20436;-68
2021/08/16 01:36:14;;;;;;;691.43;393.30;;;;;;;13.54;62.40;99907.13;5068067;28;20449;-68
2021/08/16 01:38:42;;;;;;;685.57;385.30;;;;;;;13.53;61.72;99907.25;5071324;28;20439;-67
2021/08/16 01:41:10;;;;;;;694.33;402.93;;;;;;;13.46;63.16;99895.31;5072194;28;20437;-68
2021/08/16 01:43:39;;;;;;;688.23;395.97;;;;;;;13.50;62.31;99896.75;5071250;28;20671;-68
2021/08/16 01:46:08;;;;;;;691.30;396.30;;;;;;;13.53;62.49;99899.16;5071553;28;20433;-69
2021/08/16 01:48:36;;;;;;;682.13;381.07;;;;;;;13.55;62.22;99899.88;5071350;28;20444;-67
2021/08/16 01:51:04;;;;;;;687.57;396.13;;;;;;;13.57;62.24;99895.19;5071145;28;21001;-67
2021/08/16 01:53:33;;;;;;;689.73;396.87;;;;;;;13.56;61.86;99886.25;5057384;28;20439;-67
2021/08/16 01:56:01;;;;;;;681.60;381.37;;;;;;;13.58;62.14;99888.78;5071437;28;20451;-69
2021/08/16 01:58:29;;;;;;;683.80;381.37;;;;;;;13.58;63.13;99891.50;5086680;28;20893;-69
2021/08/16 02:00:57;;;;;;;693.63;393.53;;;;;;;13.65;61.70;99903.41;5071088;28;20759;-68
2021/08/16 02:03:27;;;;;;;681.73;381.20;;;;;;;13.73;61.51;99908.06;5070783;28;20545;-68
2021/08/16 02:05:55;;;;;;;681.27;381.33;;;;;;;13.76;61.10;99895.13;5070913;28;20967;-68
2021/08/16 02:08:23;;;;;;;680.43;384.43;;;;;;;13.86;60.85;99906.78;5071032;28;20441;-67
2021/08/16 02:10:52;;;;;;;686.43;394.27;;;;;;;13.86;61.88;99898.69;5062796;28;20442;-69
2021/08/16 02:13:20;;;;;;;683.20;390.73;;;;;;;13.82;63.53;99902.66;5070562;28;20435;-69
2021/08/16 02:15:48;;;;;;;686.63;394.30;;;;;;;13.73;64.34;99898.13;5070876;28;20431;-68
2021/08/16 02:18:16;;;;;;;692.87;401.33;;;;;;;13.69;64.41;99904.81;5070883;28;20439;-69
2021/08/16 02:20:46;;;;;;;682.87;373.83;;;;;;;13.67;64.46;99898.72;5070363;28;20806;-69
2021/08/16 02:23:14;;;;;;;680.67;384.87;;;;;;;13.67;64.37;99893.31;5070651;28;20539;-69
2021/08/16 02:25:42;;;;;;;680.77;377.27;;;;;;;13.65;65.01;99889.91;5069692;28;20439;-68
2021/08/16 02:28:10;;;;;;;685.60;393.57;;;;;;;13.65;64.83;99884.50;5058565;28;20925;-67
2021/08/16 02:30:38;;;;;;;681.00;379.93;;;;;;;13.68;63.86;99879.66;5070334;28;20438;-69
2021/08/16 02:33:06;;;;;;;671.20;361.03;;;;;;;13.66;66.21;99880.81;5070205;28;20433;-69
2021/08/16 02:35:34;;;;;;;676.67;371.97;;;;;;;13.64;64.98;99880.13;5070314;28;20518;-68
2021/08/16 02:38:04;;;;;;;677.57;362.93;;;;;;;13.64;63.93;99872.03;5070105;28;20476;-69
2021/08/16 02:40:32;;;;;;;680.50;387.27;;;;;;;13.75;63.99;99879.09;5070125;28;20434;-69
2021/08/16 02:43:01;;;;;;;677.93;373.47;;;;;;;13.76;64.61;99880.78;5069880;28;20983;-68
2021/08/16 02:45:29;;;;;;;684.10;379.03;;;;;;;13.68;65.47;99868.88;5056310;28;20426;-68
2021/08/16 02:47:57;;;;;;;683.67;385.40;;;;;;;13.72;65.12;99880.22;5070199;28;20937;-68
2021/08/16 02:50:25;;;;;;;687.30;395.83;;;;;;;13.49;67.28;99846.50;5070146;28;20931;-68
2021/08/16 02:52:53;;;;;;;689.13;401.37;;;;;;;13.70;67.75;99871.44;5070016;28;20437;-68
2021/08/16 02:55:23;;;;;;;690.60;400.97;;;;;;;13.68;67.61;99876.13;5069630;28;20439;-67
2021/08/16 02:57:51;;;;;;;683.70;390.73;;;;;;;13.72;66.83;99872.13;5069980;28;20476;-69
2021/08/16 03:00:20;;;;;;;672.93;365.23;;;;;;;13.67;67.39;99867.19;5065879;28;20534;-68
2021/08/16 03:02:48;;;;;;;679.60;364.57;;;;;;;13.42;67.64;99823.78;5069818;28;20468;-67
2021/08/16 03:05:16;;;;;;;674.23;359.67;;;;;;;13.70;68.17;99874.13;5069341;28;20441;-67
2021/08/16 03:07:44;;;;;;;687.20;393.47;;;;;;;13.72;67.45;99872.13;5068580;28;20839;-69
2021/08/16 03:10:14;;;;;;;689.23;396.93;;;;;;;13.75;67.05;99869.13;5066408;28;20444;-67
2021/08/16 03:12:44;;;;;;;675.33;358.53;;;;;;;13.79;66.70;99867.88;5061761;28;20445;-67
2021/08/16 03:15:15;;;;;;;676.07;362.67;;;;;;;13.81;67.07;99865.03;5058104;28;20435;-68
2021/08/16 03:17:43;;;;;;;669.57;358.40;;;;;;;13.80;67.90;99866.88;5061329;28;20452;-68
2021/08/16 03:20:12;;;;;;;675.57;362.43;;;;;;;13.72;67.58;99853.25;5057353;28;20558;-67
2021/08/16 03:22:40;;;;;;;674.43;368.93;;;;;;;13.74;69.42;99859.34;5066315;28;20462;-67
2021/08/16 03:25:09;;;;;;;678.07;380.80;;;;;;;13.69;69.29;99853.53;5065982;28;20477;-67
2021/08/16 03:27:37;;;;;;;708.20;444.67;;;;;;;13.79;69.01;99864.34;5069215;28;20670;-67
2021/08/16 03:30:09;;;;;;;696.80;423.73;;;;;;;13.82;68.75;99870.28;5066604;28;20465;-67
2021/08/16 03:32:37;;;;;;;680.10;388.13;;;;;;;13.84;68.13;99862.88;5067613;28;20535;-68
2021/08/16 03:35:06;;;;;;;681.37;393.00;;;;;;;13.87;67.76;99853.66;5057769;28;20438;-68
2021/08/16 03:37:35;;;;;;;677.17;369.47;;;;;;;13.89;67.18;99849.81;5066341;28;20811;-68
2021/08/16 03:40:05;;;;;;;671.70;361.13;;;;;;;13.62;67.23;99795.78;5082051;28;20975;-68
2021/08/16 03:42:34;;;;;;;674.90;368.77;;;;;;;13.98;66.42;99846.19;5065187;28;20784;-68
2021/08/16 03:45:03;;;;;;;668.87;361.23;;;;;;;14.03;65.15;99850.31;5069088;28;20469;-68
2021/08/16 03:47:33;;;;;;;694.33;415.73;;;;;;;13.97;65.05;99831.00;5068917;28;20446;-68
2021/08/16 03:50:01;;;;;;;673.00;374.33;;;;;;;14.10;64.42;99838.78;5068960;28;20443;-68
2021/08/16 03:52:29;;;;;;;679.00;381.07;;;;;;;14.13;63.53;99841.19;5066449;28;20450;-68
2021/08/16 03:54:58;;;;;;;684.37;394.80;;;;;;;14.08;64.81;99835.38;5068648;28;20439;-68
2021/08/16 03:57:26;;;;;;;672.30;362.20;;;;;;;14.15;65.84;99835.63;5068677;28;20926;-68
2021/08/16 03:59:55;;;;;;;681.13;385.43;;;;;;;14.13;68.09;99843.03;5067935;28;20851;-68
2021/08/16 04:02:23;;;;;;;691.57;407.10;;;;;;;14.11;67.89;99832.38;5059468;28;20818;-68
2021/08/16 04:04:52;;;;;;;692.43;405.77;;;;;;;14.13;67.99;99843.03;5067939;28;20566;-68
2021/08/16 04:07:20;;;;;;;673.97;366.20;;;;;;;14.13;68.31;99840.34;5068400;28;20788;-67
2021/08/16 04:09:49;;;;;;;674.07;362.73;;;;;;;14.14;67.11;99836.63;5061040;28;20453;-67
2021/08/16 04:12:17;;;;;;;709.93;448.47;;;;;;;14.15;67.65;99831.09;5067943;28;20438;-68
2021/08/16 04:14:45;;;;;;;676.17;367.83;;;;;;;14.18;67.89;99838.88;5068998;28;20439;-67
2021/08/16 04:17:14;;;;;;;679.47;376.83;;;;;;;14.21;68.24;99835.03;5069930;28;20445;-67
2021/08/16 04:19:42;;;;;;;671.47;365.50;;;;;;;14.22;66.41;99840.28;5072977;28;20799;-68
2021/08/16 04:22:11;;;;;;;689.50;398.20;;;;;;;14.27;66.04;99839.81;5072822;28;20470;-67
2021/08/16 04:24:40;;;;;;;693.73;414.03;;;;;;;14.30;64.95;99834.13;5065233;28;20471;-67
2021/08/16 04:27:08;;;;;;;690.10;397.63;;;;;;;14.32;65.25;99828.56;5067227;28;20965;-71
2021/08/16 04:29:39;;;;;;;688.30;392.00;;;;;;;14.34;65.05;99832.81;5067033;28;20529;-69
2021/08/16 04:32:08;;;;;;;660.20;339.83;;;;;;;14.19;66.77;99802.78;5066882;28;20519;-68
2021/08/16 04:34:36;;;;;;;672.90;370.40;;;;;;;14.32;67.89;99825.88;5066709;28;20988;-68
2021/08/16 04:37:05;;;;;;;675.67;360.27;;;;;;;14.25;69.90;99823.78;5102371;28;20439;-68
2021/08/16 04:39:34;;;;;;;683.80;384.73;;;;;;;14.23;70.26;99819.53;5065716;28;20443;-68
2021/08/16 04:42:03;;;;;;;686.10;385.53;;;;;;;14.09;68.24;99787.63;5066519;28;20466;-68
2021/08/16 04:44:32;;;;;;;688.07;396.43;;;;;;;14.27;70.37;99818.22;5069675;28;20485;-69
2021/08/16 04:47:00;;;;;;;687.97;403.07;;;;;;;14.28;68.31;99817.22;5066335;28;20442;-68
2021/08/16 04:49:28;;;;;;;680.90;386.77;;;;;;;14.29;69.24;99814.38;5071212;28;21353;-69
2021/08/16 04:51:56;;;;;;;705.60;411.33;;;;;;;14.30;71.60;99810.66;5068506;28;20866;-69
2021/08/16 04:54:24;;;;;;;683.63;375.03;;;;;;;14.27;71.84;99810.13;5069621;28;20449;-69
2021/08/16 04:56:54;;;;;;;677.27;364.20;;;;;;;14.28;71.11;99812.66;5069554;28;20443;-68
2021/08/16 04:59:22;;;;;;;690.57;391.13;;;;;;;14.34;68.90;99810.34;5067449;28;20451;-68
2021/08/16 05:01:50;;;;;;;887.80;512.40;;;;;;;14.38;69.26;99812.59;5066622;28;20475;-68
2021/08/16 05:04:19;;;;;;;1770.10;834.63;;;;;;;14.43;68.63;99810.34;5064460;28;20903;-68
2021/08/16 05:06:47;;;;;;;760.07;411.27;;;;;;;14.45;69.10;99802.94;5064041;28;20985;-68
2021/08/16 05:09:15;;;;;;;716.13;442.60;;;;;;;14.51;72.16;99801.47;5064386;28;20444;-68
2021/08/16 05:11:43;;;;;;;723.90;447.13;;;;;;;14.60;73.17;99805.97;5061490;28;20946;-68
2021/08/16 05:14:13;;;;;;;688.77;379.07;;;;;;;14.67;74.27;99795.38;5059659;28;20434;-68
2021/08/16 05:16:42;;;;;;;689.83;384.27;;;;;;;14.76;73.04;99795.31;5062628;28;20773;-68
2021/08/16 05:19:10;;;;;;;691.07;391.90;;;;;;;14.82;71.55;99797.41;5063308;28;20941;-68
2021/08/16 05:21:43;;;;;;;700.97;429.33;;;;;;;14.90;71.30;99797.47;5069064;28;20876;-68
2021/08/16 05:24:11;;;;;;;718.63;454.20;;;;;;;14.97;70.23;99800.41;5065417;28;20798;-67
2021/08/16 05:26:40;;;;;;;734.20;495.00;;;;;;;15.03;70.11;99805.22;5064456;28;20553;-68
2021/08/16 05:29:08;;;;;;;740.07;500.93;;;;;;;15.01;70.41;99787.44;5066963;28;20857;-68
2021/08/16 05:31:38;;;;;;;731.40;480.10;;;;;;;15.17;69.50;99804.66;5064509;28;20452;-68
2021/08/16 05:34:06;;;;;;;705.67;422.27;;;;;;;15.23;71.98;99813.97;5066509;28;20434;-69
2021/08/16 05:36:37;;;;;;;690.47;392.53;;;;;;;15.11;74.38;99801.72;5062801;28;20934;-69
2021/08/16 05:39:05;;;;;;;732.87;490.07;;;;;;;15.09;73.77;99792.91;5063396;28;20549;-68
2021/08/16 05:41:33;;;;;;;705.17;424.57;;;;;;;15.17;73.82;99804.66;5059697;28;20447;-68
2021/08/16 05:44:01;;;;;;;720.97;466.13;;;;;;;15.19;74.13;99804.47;5063641;28;20958;-68
2021/08/16 05:46:30;;;;;;;717.67;461.30;;;;;;;15.18;75.15;99802.78;5065545;28;20505;-68
2021/08/16 05:48:59;;;;;;;708.27;430.90;;;;;;;15.09;74.49;99787.50;5063367;28;20439;-68
2021/08/16 05:51:27;;;;;;;747.13;519.73;;;;;;;15.21;75.87;99806.03;5063724;28;20455;-68
2021/08/16 05:53:56;;;;;;;736.87;500.80;;;;;;;15.25;75.10;99809.25;5057295;28;20445;-70
2021/08/16 05:56:24;;;;;;;726.67;481.97;;;;;;;15.25;76.53;99803.84;5065478;28;20550;-68
2021/08/16 05:58:56;;;;;;;723.00;465.30;;;;;;;15.21;77.27;99808.72;5056777;28;20497;-68
2021/08/16 06:01:24;;;;;;;704.03;413.43;;;;;;;15.17;78.13;99799.22;5057938;28;20461;-68
2021/08/16 06:03:52;;;;;;;690.47;390.43;;;;;;;15.06;79.01;99796.78;5060424;28;20459;-68
2021/08/16 06:06:22;;;;;;;691.00;403.47;;;;;;;15.09;80.13;99796.47;5064115;28;20837;-68
2021/08/16 06:08:50;;;;;;;690.77;398.67;;;;;;;15.15;80.48;99795.00;5066133;28;20448;-67
2021/08/16 06:11:18;;;;;;;690.07;400.23;;;;;;;15.12;80.56;99804.28;5068993;28;20451;-68
2021/08/16 06:13:46;;;;;;;693.10;405.23;;;;;;;15.04;81.69;99801.50;5066456;28;20804;-68
2021/08/16 06:16:14;;;;;;;734.73;507.20;;;;;;;14.79;81.92;99775.25;5055956;28;20476;-68
2021/08/16 06:18:43;;;;;;;719.50;461.23;;;;;;;14.95;82.61;99805.13;5069017;28;20490;-68
2021/08/16 06:21:11;;;;;;;689.70;399.20;;;;;;;15.05;81.39;99803.19;5069364;28;20424;-66
2021/08/16 06:23:41;;;;;;;703.93;430.43;;;;;;;15.02;82.24;99806.22;5069490;28;20451;-68
2021/08/16 06:26:09;;;;;;;711.17;442.87;;;;;;;14.98;82.53;99796.69;5056849;28;20463;-68
2021/08/16 06:28:41;;;;;;;728.67;481.80;;;;;;;15.03;82.07;99802.50;5069799;28;20575;-68
2021/08/16 06:31:09;;;;;;;755.83;547.90;;;;;;;14.99;82.91;99794.84;5069828;28;20775;-68
2021/08/16 06:33:40;;;;;;;754.30;553.00;;;;;;;14.94;82.88;99795.31;5069473;28;20436;-67
2021/08/16 06:36:08;;;;;;;743.83;524.80;;;;;;;14.98;81.91;99790.44;5068438;28;20516;-68
2021/08/16 06:38:37;;;;;;;721.73;467.90;;;;;;;15.07;82.78;99795.78;5070573;28;20505;-68
2021/08/16 06:41:07;;;;;;;696.40;414.17;;;;;;;15.04;82.84;99787.97;5069992;28;20436;-68
2021/08/16 06:43:36;;;;;;;709.00;431.60;;;;;;;15.09;82.63;99784.81;5070602;28;20530;-68
2021/08/16 06:46:04;;;;;;;701.90;429.13;;;;;;;14.99;82.96;99786.72;5086504;28;20513;-67
2021/08/16 06:48:32;;;;;;;727.17;483.23;;;;;;;14.96;83.50;99779.78;5070550;28;20529;-67
2021/08/16 06:51:00;;;;;;;731.70;485.47;;;;;;;15.02;83.99;99786.44;5070554;28;20440;-67
2021/08/16 06:53:28;;;;;;;715.27;434.70;;;;;;;15.06;83.64;99783.25;5070522;28;20471;-68
2021/08/16 06:55:56;;;;;;;706.97;421.83;;;;;;;15.06;84.15;99793.22;5070620;28;20442;-67
2021/08/16 06:58:26;;;;;;;693.47;397.60;;;;;;;15.04;83.80;99792.53;5069191;28;20443;-68
2021/08/16 07:00:54;;;;;;;731.60;487.97;;;;;;;15.09;83.77;99780.25;5070478;28;20490;-68
2021/08/16 07:03:22;;;;;;;732.53;487.90;;;;;;;14.94;83.76;99780.94;5070260;28;20441;-68
2021/08/16 07:05:51;;;;;;;737.90;510.70;;;;;;;14.71;83.99;99753.56;5070328;28;20790;-68
2021/08/16 07:08:19;;;;;;;722.37;473.23;;;;;;;14.83;84.15;99774.78;5070349;28;20443;-68
2021/08/16 07:10:49;;;;;;;707.83;427.30;;;;;;;14.95;83.79;99778.09;5070227;28;20436;-68
2021/08/16 07:13:17;;;;;;;700.20;412.70;;;;;;;14.96;83.05;99777.06;5070517;28;20440;-67
2021/08/16 07:15:47;;;;;;;691.93;400.73;;;;;;;14.96;83.45;99773.53;5069926;28;20791;-67
2021/08/16 07:18:16;;;;;;;692.67;393.80;;;;;;;14.98;83.20;99766.94;5070442;28;20457;-68
2021/08/16 07:20:45;;;;;;;704.07;425.07;;;;;;;15.01;82.85;99774.78;5069729;28;20440;-67
2021/08/16 07:23:13;;;;;;;700.93;431.10;;;;;;;15.08;83.53;99773.13;5070111;28;20848;-68
2021/08/16 07:25:41;;;;;;;699.33;420.90;;;;;;;15.08;82.60;99777.69;5069650;28;20467;-68
2021/08/16 07:28:10;;;;;;;723.67;477.90;;;;;;;15.20;82.38;99776.44;5069279;28;20444;-68
2021/08/16 07:30:38;;;;;;;735.00;483.23;;;;;;;14.83;82.18;99709.06;5069459;28;20537;-68
2021/08/16 07:33:08;;;;;;;711.37;442.33;;;;;;;15.41;82.46;99767.97;5069656;28;20440;-68
2021/08/16 07:35:36;;;;;;;725.10;478.63;;;;;;;15.54;81.59;99771.94;5069675;28;20911;-68
2021/08/16 07:38:04;;;;;;;738.97;502.33;;;;;;;15.50;81.43;99775.97;5069445;28;20469;-68
2021/08/16 07:40:32;;;;;;;716.03;448.00;;;;;;;15.54;80.83;99780.06;5085266;28;20431;-68
2021/08/16 07:43:00;;;;;;;728.10;472.53;;;;;;;15.46;81.03;99771.03;5069634;28;20442;-68
2021/08/16 07:45:29;;;;;;;703.43;419.43;;;;;;;15.57;81.07;99776.16;5055793;28;20436;-67
2021/08/16 07:47:57;;;;;;;697.70;406.17;;;;;;;15.62;81.22;99773.03;5069240;28;20445;-68
2021/08/16 07:50:27;;;;;;;709.43;414.03;;;;;;;15.64;81.41;99779.16;5069174;28;20442;-67
2021/08/16 07:52:55;;;;;;;698.80;410.27;;;;;;;15.68;82.04;99778.66;5069208;28;20815;-68
2021/08/16 07:55:23;;;;;;;731.60;490.20;;;;;;;15.77;81.77;99788.50;5069113;28;20515;-67
2021/08/16 07:57:52;;;;;;;755.93;543.00;;;;;;;15.46;81.35;99735.84;5069325;28;20830;-67
2021/08/16 08:00:21;;;;;;;728.93;481.97;;;;;;;15.23;80.42;99690.41;5069221;28;20895;-68
2021/08/16 08:02:51;;;;;;;697.10;407.73;;;;;;;15.83;80.39;99773.47;5069404;28;20849;-67
2021/08/16 08:05:21;;;;;;;703.60;419.67;;;;;;;15.92;80.64;99782.47;5069556;28;20938;-68
2021/08/16 08:07:51;;;;;;;716.30;448.50;;;;;;;15.96;79.73;99781.19;5069643;28;20463;-68
2021/08/16 08:10:21;;;;;;;704.13;416.37;;;;;;;15.95;80.41;99776.78;5069538;28;20547;-68
2021/08/16 08:12:50;;;;;;;715.07;456.43;;;;;;;15.89;81.05;99783.66;5069421;28;20436;-67
2021/08/16 08:15:19;;;;;;;705.53;419.90;;;;;;;15.87;80.92;99780.25;5069435;28;20930;-68
2021/08/16 08:17:47;;;;;;;729.97;473.90;;;;;;;15.89;80.80;99782.81;5082291;28;20454;-68
2021/08/16 08:20:18;;;;;;;740.53;510.97;;;;;;;15.80;80.97;99774.66;5069772;28;20440;-68
2021/08/16 08:22:46;;;;;;;788.17;516.10;;;;;;;15.82;81.39;99778.03;5084620;28;20474;-68
2021/08/16 08:25:16;;;;;;;715.03;442.40;;;;;;;15.92;81.12;99782.47;5069241;28;20801;-67
2021/08/16 08:27:44;;;;;;;707.23;428.23;;;;;;;15.95;82.12;99769.50;5069196;28;20467;-68
2021/08/16 08:30:13;;;;;;;706.70;427.20;;;;;;;15.97;81.69;99758.50;5069348;28;20443;-68
2021/08/16 08:32:46;;;;;;;738.03;499.07;;;;;;;16.18;82.48;99769.72;5069103;28;20559;-68
2021/08/16 08:35:14;;;;;;;731.30;476.93;;;;;;;16.18;81.22;99755.34;5069170;28;20436;-68
2021/08/16 08:37:42;;;;;;;714.77;441.13;;;;;;;16.17;80.48;99765.31;5056750;28;21073;-67
2021/08/16 08:40:11;;;;;;;725.60;465.90;;;;;;;16.19;80.77;99768.72;5067651;28;20434;-68
2021/08/16 08:42:42;;;;;;;727.97;468.60;;;;;;;16.05;79.89;99762.06;5069079;28;20440;-68
2021/08/16 08:45:11;;;;;;;713.00;434.93;;;;;;;16.05;80.96;99766.66;5068902;28;20797;-68
2021/08/16 08:47:39;;;;;;;701.27;419.20;;;;;;;15.98;80.38;99761.03;5068884;28;20490;-68
2021/08/16 08:50:08;;;;;;;719.40;456.00;;;;;;;15.99;81.21;99761.88;5068818;28;20448;-68
2021/08/16 08:52:36;;;;;;;709.57;440.00;;;;;;;16.05;80.93;99747.69;5067819;28;20472;-67
2021/08/16 08:55:05;;;;;;;711.37;434.70;;;;;;;16.17;81.55;99750.94;5068697;28;20455;-68
2021/08/16 08:57:55;;;;;;;744.03;513.73;;;;;;;16.22;81.42;99749.41;5084438;28;20490;-67
2021/08/16 09:00:23;;;;;;;771.87;578.77;;;;;;;16.43;81.08;99744.41;5068654;28;20424;-67
2021/08/16 09:03:02;;;;;;;781.83;605.87;;;;;;;16.64;81.62;99759.38;5069695;28;20538;-67
2021/08/16 09:05:32;;;;;;;792.37;633.50;;;;;;;16.65;80.60;99747.50;5072259;28;20916;-67
2021/08/16 09:08:03;;;;;;;787.63;628.47;;;;;;;16.92;82.41;99749.94;5072612;28;20563;-67
2021/08/16 09:10:31;;;;;;;800.37;655.47;;;;;;;17.06;80.29;99741.09;5072363;28;20443;-68
2021/08/16 09:13:01;;;;;;;811.63;665.63;;;;;;;17.16;77.37;99746.38;5072486;28;20432;-67
2021/08/16 09:15:30;;;;;;;796.67;641.33;;;;;;;17.08;78.53;99744.47;5072178;28;20945;-68
2021/08/16 09:18:04;;;;;;;798.70;644.27;;;;;;;17.17;79.01;99734.50;5072228;28;20436;-67
2021/08/16 09:20:35;;;;;;;808.60;657.27;;;;;;;17.12;79.10;99738.72;5072154;28;20432;-68
2021/08/16 09:23:05;;;;;;;801.07;650.40;;;;;;;17.02;79.41;99734.31;5072279;28;20542;-68
2021/08/16 09:25:39;;;;;;;795.83;639.47;;;;;;;16.96;79.07;99697.03;5071967;28;20462;-69
2021/08/16 09:28:11;;;;;;;784.20;615.70;;;;;;;17.22;79.32;99714.97;5072070;28;21015;-68
2021/08/16 09:30:41;;;;;;;773.03;588.67;;;;;;;17.33;78.90;99730.91;5071982;28;20828;-68
2021/08/16 09:33:14;;;;;;;771.93;580.23;;;;;;;17.39;78.77;99735.63;5072221;28;20514;-67
2021/08/16 09:35:53;;;;;;;785.20;618.50;;;;;;;17.36;78.62;99725.13;5071931;28;20522;-68
2021/08/16 09:38:37;;;;;;;785.47;615.07;;;;;;;17.60;78.00;99725.06;5058577;28;20505;-68
2021/08/16 09:41:06;;;;;;;775.43;582.93;;;;;;;17.71;77.89;99723.03;5071312;28;20459;-68
2021/08/16 09:43:35;;;;;;;783.03;602.63;;;;;;;17.70;77.00;99716.75;5072222;28;20431;-68
2021/08/16 09:46:14;;;;;;;790.50;612.00;;;;;;;17.71;77.85;99702.13;5072050;28;20942;-68
2021/08/16 09:48:44;;;;;;;773.40;576.17;;;;;;;17.62;78.15;99681.44;5071502;28;20467;-68
2021/08/16 09:51:22;;;;;;;780.37;589.50;;;;;;;17.93;77.74;99712.25;5071976;28;20537;-68
2021/08/16 09:53:52;;;;;;;789.07;613.43;;;;;;;18.11;77.82;99712.00;5071827;28;20569;-68
2021/08/16 09:56:24;;;;;;;782.37;601.13;;;;;;;18.34;77.94;99705.72;5072054;28;20951;-68
2021/08/16 09:58:54;;;;;;;771.73;568.53;;;;;;;18.40;75.14;99702.31;5071680;28;20711;-68
2021/08/16 10:01:22;;;;;;;786.90;605.73;;;;;;;18.51;74.47;99707.34;5071687;28;20205;-68
2021/08/16 10:03:51;;;;;;;782.93;591.43;;;;;;;18.61;75.35;99703.34;5071843;28;20211;-68
2021/08/16 10:06:21;;;;;;;786.67;601.57;;;;;;;18.46;74.93;99691.56;5071884;28;20545;-67
2021/08/16 10:08:53;;;;;;;777.37;589.37;;;;;;;18.46;74.51;99688.00;5071460;28;20222;-67
2021/08/16 10:11:22;;;;;;;763.13;552.07;;;;;;;18.59;72.74;99694.50;5071759;28;20205;-67
2021/08/16 10:13:56;;;;;;;743.57;515.87;;;;;;;18.74;73.24;99694.63;5070714;28;20553;-68
2021/08/16 10:16:27;;;;;;;752.37;525.83;;;;;;;18.86;72.64;99686.84;5070870;28;20635;-68
2021/08/16 10:19:06;;;;;;;767.93;563.10;;;;;;;18.79;73.14;99677.75;5071802;28;20621;-68
2021/08/16 10:21:37;;;;;;;742.07;507.57;;;;;;;18.96;71.71;99692.03;5071197;28;20245;-68
2021/08/16 10:24:16;;;;;;;784.77;604.20;;;;;;;18.96;71.19;99709.19;5071090;28;20722;-68
2021/08/16 10:26:56;;;;;;;791.33;621.97;;;;;;;18.81;72.63;99698.28;5071102;28;20545;-68
2021/08/16 10:29:26;;;;;;;776.03;584.30;;;;;;;18.70;72.27;99711.50;5071150;28;20199;-68
2021/08/16 10:31:54;;;;;;;780.80;597.30;;;;;;;18.50;71.63;99713.78;5071413;28;20668;-68
2021/08/16 10:34:27;;;;;;;781.17;601.63;;;;;;;18.41;72.30;99710.28;5070936;28;20205;-68
2021/08/16 10:37:01;;;;;;;771.27;569.93;;;;;;;18.14;72.85;99665.44;5070955;28;20481;-68
2021/08/16 10:39:37;;;;;;;737.17;491.67;;;;;;;18.20;74.13;99691.91;5071257;28;20651;-68
2021/08/16 10:42:10;;;;;;;744.17;515.97;;;;;;;18.26;74.28;99704.75;5057388;28;20204;-67
2021/08/16 10:44:41;;;;;;;736.63;488.77;;;;;;;18.10;75.33;99693.16;5070794;28;20207;-68
2021/08/16 10:47:10;;;;;;;782.40;591.20;;;;;;;18.09;75.22;99705.91;5056832;28;20209;-68
2021/08/16 10:49:40;;;;;;;757.57;534.50;;;;;;;18.00;75.28;99704.22;5070768;28;20197;-68
2021/08/16 10:52:20;;;;;;;780.80;593.90;;;;;;;18.01;75.94;99700.47;5070706;28;20194;-68
2021/08/16 10:54:49;;;;;;;776.53;586.57;;;;;;;18.07;76.30;99694.38;5070906;28;20209;-68
2021/08/16 10:57:18;;;;;;;788.57;608.70;;;;;;;18.16;76.62;99687.84;5070620;28;20193;-68
2021/08/16 10:59:47;;;;;;;785.40;606.80;;;;;;;18.28;76.27;99685.56;5086007;28;20209;-68
2021/08/16 11:02:16;;;;;;;763.63;562.10;;;;;;;18.47;75.67;99681.53;5070845;28;20312;-68
2021/08/16 11:04:45;;;;;;;794.27;623.37;;;;;;;18.62;74.59;99682.44;5070322;28;20296;-68
2021/08/16 11:07:23;;;;;;;796.43;625.33;;;;;;;18.63;73.77;99686.88;5070434;28;20194;-68
2021/08/16 11:09:57;;;;;;;799.37;643.40;;;;;;;18.66;73.15;99689.22;5070375;28;20207;-67
2021/08/16 11:12:32;;;;;;;708.90;446.07;;;;;;;18.76;73.08;99692.56;5070734;28;20602;-68